Independence, Iowa
Current Conditions -  °F | °C
As of 10:35 AM on Saturday 22 Nov 2014 (Local Time) from KIIB Reporting Station
Moderate Fog Moderate Fog  
Wind Chill: 32°   Ceiling: 200
Heat Index: 37°   Visibility: 0.25mi
Dew Point: 37°   Wind: 7mph
Humidity: 100%   Direction: 200°SSW
Pressure: 29.86"   Gusts: NA
Location:  42.48°N, 91.89°W
Report Text: KIIB 221635Z AUTO 20006KT 1/4SM FG OVC002 03/03 A2986 RMK AO2
Loading
Personal Weather Stations






























Interactive Weather Map New forecast layout! Learn more

10-Day Weather Forecast

Advertisements
Track Severe Weather on mobile